createdAt,value
2019-05-19T00:00:42.729Z,99.80
2019-05-19T00:03:08.918Z,99.90
2019-05-19T00:05:35.064Z,99.90
2019-05-19T00:08:01.128Z,99.90
2019-05-19T00:10:27.177Z,99.90
2019-05-19T00:12:53.317Z,99.90
2019-05-19T00:15:19.374Z,99.90
2019-05-19T00:17:45.424Z,99.90
2019-05-19T00:20:11.684Z,99.90
2019-05-19T00:22:37.739Z,99.90
2019-05-19T00:25:04.103Z,99.90
2019-05-19T00:27:30.162Z,99.90
2019-05-19T00:29:56.256Z,99.90
2019-05-19T00:32:22.333Z,99.90
2019-05-19T00:34:48.484Z,99.90
2019-05-19T00:37:14.544Z,99.90
2019-05-19T00:39:40.628Z,99.90
2019-05-19T00:42:06.689Z,99.90
2019-05-19T00:44:32.741Z,99.90
2019-05-19T00:46:58.816Z,99.90
2019-05-19T00:49:24.867Z,99.90
2019-05-19T00:51:50.921Z,99.90
2019-05-19T00:54:17.006Z,99.90
2019-05-19T00:56:43.598Z,99.90
2019-05-19T00:59:10.476Z,99.90
2019-05-19T01:01:36.532Z,99.90
2019-05-19T01:04:02.615Z,99.90
2019-05-19T01:06:28.666Z,99.90
2019-05-19T01:08:54.727Z,99.90
2019-05-19T01:11:20.778Z,99.90
2019-05-19T01:13:46.857Z,99.90
2019-05-19T01:16:13.017Z,99.90
2019-05-19T01:18:39.088Z,99.90
2019-05-19T01:21:05.348Z,99.90
2019-05-19T01:23:31.411Z,99.90
2019-05-19T01:25:57.489Z,99.90
2019-05-19T01:28:23.537Z,99.90
2019-05-19T01:30:49.598Z,99.90
2019-05-19T01:33:15.774Z,99.90
2019-05-19T01:35:42.010Z,99.90
2019-05-19T01:38:08.072Z,99.90
2019-05-19T01:40:34.168Z,99.90
2019-05-19T01:43:00.224Z,99.90
2019-05-19T01:45:26.276Z,99.90
2019-05-19T01:47:52.530Z,99.90
2019-05-19T01:50:18.915Z,99.90
2019-05-19T01:52:45.179Z,99.90
2019-05-19T01:55:11.426Z,99.90
2019-05-19T01:57:37.475Z,99.90
2019-05-19T02:00:05.849Z,99.90
2019-05-19T02:02:31.975Z,99.90
2019-05-19T02:04:58.038Z,99.90
2019-05-19T02:07:24.111Z,99.90
2019-05-19T02:09:50.468Z,99.90
2019-05-19T02:12:16.565Z,99.90
2019-05-19T02:14:42.692Z,99.90
2019-05-19T02:17:08.756Z,99.90
2019-05-19T02:19:34.804Z,99.90
2019-05-19T02:22:00.868Z,99.90
2019-05-19T02:24:27.079Z,99.90
2019-05-19T02:26:53.141Z,99.90
2019-05-19T02:29:19.287Z,99.90
2019-05-19T02:31:45.379Z,99.90
2019-05-19T02:34:11.541Z,99.90
2019-05-19T02:36:37.727Z,99.90
2019-05-19T02:39:05.000Z,99.90
2019-05-19T02:41:31.795Z,99.90
2019-05-19T02:44:00.143Z,99.90
2019-05-19T02:46:28.097Z,99.90
2019-05-19T02:48:56.357Z,99.90
2019-05-19T02:51:24.931Z,99.90
2019-05-19T02:53:52.181Z,99.90
2019-05-19T02:56:19.675Z,99.90
2019-05-19T02:58:45.750Z,99.90
2019-05-19T03:01:11.803Z,99.90
2019-05-19T03:03:37.873Z,99.90
2019-05-19T03:06:04.016Z,99.90
2019-05-19T03:08:30.110Z,99.90
2019-05-19T03:10:56.285Z,99.90
2019-05-19T03:13:22.448Z,99.90
2019-05-19T03:18:14.942Z,99.90
2019-05-19T03:20:41.109Z,99.90
2019-05-19T03:23:07.156Z,99.90
2019-05-19T03:25:33.226Z,99.90
2019-05-19T03:27:59.385Z,99.90
2019-05-19T03:30:45.589Z,99.90
2019-05-19T03:33:22.774Z,99.90
2019-05-19T03:35:48.961Z,99.90
2019-05-19T03:38:15.135Z,99.90
2019-05-19T03:40:41.182Z,99.90
2019-05-19T03:43:07.241Z,99.90
2019-05-19T03:45:33.294Z,99.90
2019-05-19T03:47:59.374Z,99.90
2019-05-19T03:50:25.431Z,99.90
2019-05-19T03:52:51.533Z,99.90
2019-05-19T03:55:17.724Z,99.90
2019-05-19T03:57:43.965Z,99.90
2019-05-19T04:00:11.029Z,99.90
2019-05-19T04:02:37.088Z,99.90
2019-05-19T04:05:05.755Z,99.90
2019-05-19T04:07:31.807Z,99.90
2019-05-19T04:09:57.885Z,99.90
2019-05-19T04:12:23.936Z,99.90
2019-05-19T04:14:50.000Z,99.90
2019-05-19T04:17:16.055Z,99.90
2019-05-19T04:19:42.115Z,99.90
2019-05-19T04:22:08.183Z,99.90
2019-05-19T04:24:38.099Z,99.90
2019-05-19T04:27:04.160Z,99.90
2019-05-19T04:29:30.208Z,99.90
2019-05-19T04:31:56.277Z,99.90
2019-05-19T04:34:22.330Z,99.90
2019-05-19T04:36:48.428Z,99.90
2019-05-19T04:39:14.484Z,99.90
2019-05-19T04:41:40.603Z,99.90
2019-05-19T04:44:06.850Z,99.90
2019-05-19T04:46:32.957Z,99.90
2019-05-19T04:48:59.013Z,99.90
2019-05-19T04:51:25.056Z,99.90
2019-05-19T04:53:51.115Z,99.90
2019-05-19T04:56:19.660Z,99.90
2019-05-19T04:58:45.145Z,99.90
2019-05-19T05:01:11.230Z,99.90
2019-05-19T05:03:37.379Z,99.90
2019-05-19T05:06:03.464Z,99.90
2019-05-19T05:08:30.922Z,99.90
2019-05-19T05:10:57.180Z,99.90
2019-05-19T05:13:23.244Z,99.90
2019-05-19T05:15:49.336Z,99.70
2019-05-19T05:18:15.380Z,99.90
2019-05-19T05:20:41.597Z,99.90
2019-05-19T05:23:07.639Z,99.90
2019-05-19T05:25:33.721Z,99.90
2019-05-19T05:27:59.776Z,99.80
2019-05-19T05:30:25.828Z,99.90
2019-05-19T05:32:51.884Z,99.80
2019-05-19T05:35:18.111Z,99.60
2019-05-19T05:37:44.345Z,99.00
2019-05-19T05:40:10.845Z,98.30
2019-05-19T05:42:36.967Z,97.90
2019-05-19T05:45:04.998Z,97.80
2019-05-19T05:47:31.351Z,98.20
2019-05-19T05:49:57.409Z,98.70
2019-05-19T05:52:37.476Z,97.90
2019-05-19T05:54:51.449Z,97.30
2019-05-19T05:57:17.600Z,96.60
2019-05-19T05:59:43.704Z,96.40
2019-05-19T06:02:09.874Z,95.50
2019-05-19T06:04:36.075Z,95.70
2019-05-19T06:07:02.146Z,96.00
2019-05-19T06:09:28.288Z,95.70
2019-05-19T06:11:54.334Z,95.10
2019-05-19T06:14:20.433Z,94.60
2019-05-19T06:16:46.484Z,94.30
2019-05-19T06:19:12.564Z,94.70
2019-05-19T06:21:38.633Z,95.00
2019-05-19T06:24:04.711Z,94.70
2019-05-19T06:26:30.751Z,94.70
2019-05-19T06:28:56.816Z,94.30
2019-05-19T06:31:22.899Z,93.40
2019-05-19T06:33:48.944Z,93.20
2019-05-19T06:36:15.026Z,93.70
2019-05-19T06:38:41.100Z,93.60
2019-05-19T06:41:07.231Z,93.20
2019-05-19T06:43:33.296Z,92.30
2019-05-19T06:45:59.407Z,92.20
2019-05-19T06:48:25.640Z,92.10
2019-05-19T06:50:51.713Z,91.40
2019-05-19T06:53:17.867Z,90.80
2019-05-19T06:55:43.930Z,90.50
2019-05-19T06:58:09.992Z,90.50
2019-05-19T07:00:36.452Z,90.50
2019-05-19T07:03:02.519Z,90.40
2019-05-19T07:05:28.618Z,90.70
2019-05-19T07:07:54.766Z,90.70
2019-05-19T07:10:20.828Z,90.50
2019-05-19T07:12:46.892Z,90.30
2019-05-19T07:15:13.564Z,89.20
2019-05-19T07:17:39.624Z,87.30
2019-05-19T07:20:05.981Z,85.00
2019-05-19T07:22:32.206Z,86.00
2019-05-19T07:24:58.308Z,85.70
2019-05-19T07:27:24.415Z,86.80
2019-05-19T07:29:50.508Z,87.60
2019-05-19T07:32:16.651Z,88.80
2019-05-19T07:34:42.799Z,90.40
2019-05-19T07:37:08.849Z,90.50
2019-05-19T07:39:34.920Z,90.80
2019-05-19T07:42:00.977Z,88.90
2019-05-19T07:44:27.029Z,85.20
2019-05-19T07:46:53.088Z,85.30
2019-05-19T07:49:19.144Z,84.70
2019-05-19T07:51:45.504Z,84.90
2019-05-19T07:54:11.565Z,84.70
2019-05-19T07:56:37.620Z,85.10
2019-05-19T07:59:03.676Z,85.00
2019-05-19T08:01:29.820Z,83.90
2019-05-19T08:03:55.914Z,84.70
2019-05-19T08:06:22.056Z,85.50
2019-05-19T08:08:48.111Z,85.00
2019-05-19T08:11:14.172Z,83.70
2019-05-19T08:13:40.232Z,84.60
2019-05-19T08:16:06.327Z,84.40
2019-05-19T08:18:32.452Z,83.40
2019-05-19T08:20:58.678Z,83.00
2019-05-19T08:23:24.928Z,82.70
2019-05-19T08:25:51.019Z,81.90
2019-05-19T08:28:17.175Z,82.10
2019-05-19T08:30:43.336Z,82.00
2019-05-19T08:33:09.424Z,80.60
2019-05-19T08:35:36.576Z,79.10
2019-05-19T08:38:02.688Z,79.40
2019-05-19T08:40:28.809Z,78.90
2019-05-19T08:42:54.946Z,77.30
2019-05-19T08:45:21.257Z,77.80
2019-05-19T08:47:47.372Z,77.60
2019-05-19T08:50:13.635Z,76.90
2019-05-19T08:52:39.797Z,77.90
2019-05-19T08:55:06.453Z,76.50
2019-05-19T08:57:32.556Z,76.70
2019-05-19T08:59:58.652Z,75.80
2019-05-19T09:02:24.743Z,73.30
2019-05-19T09:04:50.874Z,72.80
2019-05-19T09:07:16.951Z,74.20
2019-05-19T09:09:43.121Z,73.40
2019-05-19T09:12:09.208Z,74.10
2019-05-19T09:14:35.255Z,72.40
2019-05-19T09:17:01.410Z,71.80
2019-05-19T09:19:27.625Z,70.10
2019-05-19T09:21:53.727Z,71.50
2019-05-19T09:24:30.028Z,72.40
2019-05-19T09:26:47.919Z,70.80
2019-05-19T09:29:14.014Z,69.60
2019-05-19T09:31:41.492Z,69.10
2019-05-19T09:34:08.348Z,69.40
2019-05-19T09:36:34.471Z,68.80
2019-05-19T09:39:00.614Z,67.50
2019-05-19T09:41:26.751Z,66.70
2019-05-19T09:43:52.851Z,66.50
2019-05-19T09:46:18.916Z,67.80
2019-05-19T09:48:44.967Z,67.60
2019-05-19T09:51:11.037Z,65.50
2019-05-19T09:53:37.088Z,66.40
2019-05-19T09:56:03.181Z,67.10
2019-05-19T09:58:29.228Z,68.30
2019-05-19T10:00:55.292Z,69.50
2019-05-19T10:03:21.494Z,69.40
2019-05-19T10:05:47.628Z,68.50
2019-05-19T10:08:13.681Z,67.50
2019-05-19T10:10:45.858Z,69.20
2019-05-19T10:13:11.907Z,69.00
2019-05-19T10:15:37.985Z,69.20
2019-05-19T10:18:04.044Z,67.70
2019-05-19T10:20:30.153Z,68.70
2019-05-19T10:22:56.305Z,68.40
2019-05-19T10:25:23.252Z,67.90
2019-05-19T10:27:49.771Z,67.90
2019-05-19T10:30:16.224Z,68.40
2019-05-19T10:32:42.331Z,67.80
2019-05-19T10:35:08.792Z,67.80
2019-05-19T10:37:34.856Z,68.30
2019-05-19T10:40:00.908Z,69.10
2019-05-19T10:42:26.995Z,68.80
2019-05-19T10:44:53.335Z,65.90
2019-05-19T10:47:19.460Z,67.00
2019-05-19T10:49:45.516Z,66.20
2019-05-19T10:52:11.700Z,66.90
2019-05-19T10:54:37.752Z,66.70
2019-05-19T10:57:03.936Z,66.30
2019-05-19T10:59:30.087Z,67.00
2019-05-19T11:01:56.167Z,66.00
2019-05-19T11:04:22.331Z,64.50
2019-05-19T11:06:48.468Z,64.80
2019-05-19T11:09:14.686Z,64.70
2019-05-19T11:11:40.873Z,65.10
2019-05-19T11:14:07.022Z,63.20
2019-05-19T11:16:33.076Z,62.10
2019-05-19T11:18:59.331Z,61.80
2019-05-19T11:21:25.599Z,61.10
2019-05-19T11:23:51.659Z,60.60
2019-05-19T11:26:17.761Z,61.40
2019-05-19T11:28:43.849Z,61.60
2019-05-19T11:31:09.996Z,61.00
2019-05-19T11:33:36.052Z,60.90
2019-05-19T11:36:02.452Z,60.70
2019-05-19T11:38:28.596Z,60.70
2019-05-19T11:40:54.647Z,60.80
2019-05-19T11:43:20.819Z,59.80
2019-05-19T11:45:46.864Z,58.50
2019-05-19T11:48:12.924Z,59.70
2019-05-19T11:50:41.989Z,59.00
2019-05-19T11:53:07.120Z,57.70
2019-05-19T11:55:33.309Z,57.60
2019-05-19T11:57:59.361Z,58.10
2019-05-19T12:00:25.584Z,57.90
2019-05-19T12:02:51.651Z,58.10
2019-05-19T12:05:17.706Z,59.40
2019-05-19T12:07:43.758Z,59.10
2019-05-19T12:10:10.971Z,58.90
2019-05-19T12:12:37.118Z,57.90
2019-05-19T12:15:06.076Z,58.10
2019-05-19T12:17:32.155Z,57.80
2019-05-19T12:19:58.224Z,56.30
2019-05-19T12:22:24.308Z,57.00
2019-05-19T12:24:50.367Z,57.70
2019-05-19T12:27:16.424Z,56.70
2019-05-19T12:29:42.488Z,56.70
2019-05-19T12:32:08.555Z,56.40
2019-05-19T12:34:34.612Z,55.80
2019-05-19T12:37:00.783Z,56.40
2019-05-19T12:39:26.909Z,55.30
2019-05-19T12:41:52.964Z,55.90
2019-05-19T12:44:19.023Z,55.90
2019-05-19T12:46:45.079Z,56.10
2019-05-19T12:49:11.149Z,56.40
2019-05-19T12:51:37.204Z,56.10
2019-05-19T12:54:03.276Z,56.50
2019-05-19T12:56:39.024Z,57.00
2019-05-19T12:58:57.688Z,57.00
2019-05-19T13:01:23.744Z,57.30
2019-05-19T13:03:49.793Z,55.90
2019-05-19T13:06:15.888Z,55.20
2019-05-19T13:08:42.024Z,55.80
2019-05-19T13:11:08.953Z,56.90
2019-05-19T13:13:35.155Z,58.00
2019-05-19T13:16:01.317Z,56.40
2019-05-19T13:18:27.376Z,56.00
2019-05-19T13:20:53.451Z,54.70
2019-05-19T13:23:19.531Z,55.00
2019-05-19T13:25:45.584Z,54.40
2019-05-19T13:28:11.749Z,53.80
2019-05-19T13:30:37.791Z,53.20
2019-05-19T13:33:03.854Z,54.20
2019-05-19T13:35:30.011Z,54.10
2019-05-19T13:37:57.177Z,54.50
2019-05-19T13:40:23.238Z,53.90
2019-05-19T13:42:49.285Z,52.40
2019-05-19T13:45:15.752Z,53.20
2019-05-19T13:47:41.805Z,53.80
2019-05-19T13:50:08.730Z,53.00
2019-05-19T13:52:34.819Z,53.20
2019-05-19T13:55:00.875Z,52.70
2019-05-19T13:57:26.923Z,53.40
2019-05-19T13:59:52.987Z,51.40
2019-05-19T14:02:19.035Z,50.70
2019-05-19T14:04:45.094Z,50.60
2019-05-19T14:07:11.197Z,49.80
2019-05-19T14:09:37.260Z,50.00
2019-05-19T14:12:03.329Z,50.70
2019-05-19T14:14:29.375Z,51.00
2019-05-19T14:16:55.496Z,51.20
2019-05-19T14:19:21.569Z,51.40
2019-05-19T14:21:47.803Z,51.60
2019-05-19T14:24:13.860Z,52.10
2019-05-19T14:26:40.031Z,52.60
2019-05-19T14:29:06.085Z,53.30
2019-05-19T14:31:32.267Z,52.60
2019-05-19T14:33:58.412Z,52.70
2019-05-19T14:36:24.572Z,53.30
2019-05-19T14:38:59.721Z,52.50
2019-05-19T14:41:33.389Z,52.50
2019-05-19T14:43:55.185Z,51.90
2019-05-19T14:46:21.323Z,52.70
2019-05-19T14:48:47.391Z,52.00
2019-05-19T14:51:13.494Z,52.30
2019-05-19T14:53:39.620Z,51.60
2019-05-19T14:56:05.690Z,51.90
2019-05-19T14:58:31.740Z,51.90
2019-05-19T15:00:57.897Z,51.40
2019-05-19T15:03:23.943Z,51.60
2019-05-19T15:05:50.008Z,52.00
2019-05-19T15:08:16.055Z,51.70
2019-05-19T15:10:42.195Z,52.10
2019-05-19T15:13:08.264Z,52.00
2019-05-19T15:15:34.382Z,51.60
2019-05-19T15:18:00.718Z,51.60
2019-05-19T15:20:26.783Z,51.50
2019-05-19T15:22:52.899Z,50.70
2019-05-19T15:25:18.955Z,51.30
2019-05-19T15:27:59.343Z,51.40
2019-05-19T15:30:14.528Z,51.60
2019-05-19T15:32:40.681Z,52.00
2019-05-19T15:35:07.659Z,51.80
2019-05-19T15:37:34.320Z,52.00
2019-05-19T15:40:00.383Z,52.50
2019-05-19T15:42:26.453Z,52.60
2019-05-19T15:44:52.515Z,52.60
2019-05-19T15:47:18.574Z,53.50
2019-05-19T15:49:44.659Z,53.60
2019-05-19T15:52:10.861Z,53.80
2019-05-19T15:54:37.089Z,53.60
2019-05-19T15:57:03.148Z,54.80
2019-05-19T15:59:29.312Z,54.80
2019-05-19T16:01:55.467Z,55.10
2019-05-19T16:04:21.542Z,55.20
2019-05-19T16:06:47.740Z,55.90
2019-05-19T16:09:13.788Z,56.50
2019-05-19T16:11:39.868Z,56.90
2019-05-19T16:14:05.927Z,57.30
2019-05-19T16:16:32.109Z,57.60
2019-05-19T16:18:58.236Z,58.00
2019-05-19T16:21:24.380Z,58.20
2019-05-19T16:23:50.447Z,58.10
2019-05-19T16:26:16.508Z,58.20
2019-05-19T16:28:42.591Z,58.00
2019-05-19T16:31:08.645Z,58.10
2019-05-19T16:33:34.704Z,57.90
2019-05-19T16:36:00.771Z,57.60
2019-05-19T16:38:26.848Z,57.60
2019-05-19T16:40:53.028Z,57.30
2019-05-19T16:43:19.091Z,57.60
2019-05-19T16:45:45.644Z,57.70
2019-05-19T16:48:11.742Z,58.10
2019-05-19T16:50:37.900Z,57.90
2019-05-19T16:53:04.064Z,57.90
2019-05-19T16:55:32.123Z,57.50
2019-05-19T16:57:58.175Z,57.50
2019-05-19T17:00:25.371Z,57.60
2019-05-19T17:02:51.511Z,57.70
2019-05-19T17:05:17.787Z,58.20
2019-05-19T17:07:43.942Z,57.70
2019-05-19T17:10:10.414Z,57.50
2019-05-19T17:12:36.564Z,57.70
2019-05-19T17:15:03.971Z,57.90
2019-05-19T17:17:30.019Z,57.80
2019-05-19T17:19:56.117Z,57.10
2019-05-19T17:22:22.172Z,57.50
2019-05-19T17:24:48.242Z,57.10
2019-05-19T17:27:14.420Z,57.00
2019-05-19T17:29:40.477Z,57.70
2019-05-19T17:32:06.553Z,58.10
2019-05-19T17:34:32.696Z,58.40
2019-05-19T17:36:58.761Z,58.50
2019-05-19T17:39:24.815Z,58.80
2019-05-19T17:41:50.872Z,59.40
2019-05-19T17:44:16.951Z,59.70
2019-05-19T17:46:43.056Z,60.10
2019-05-19T17:49:09.103Z,60.50
2019-05-19T17:51:35.167Z,61.00
2019-05-19T17:54:01.231Z,61.50
2019-05-19T17:56:28.292Z,61.80
2019-05-19T17:58:54.402Z,61.90
2019-05-19T18:01:20.734Z,61.80
2019-05-19T18:03:48.001Z,62.20
2019-05-19T18:06:14.063Z,62.50
2019-05-19T18:08:40.149Z,62.70
2019-05-19T18:11:06.253Z,63.10
2019-05-19T18:13:32.383Z,63.40
2019-05-19T18:15:58.543Z,63.70
2019-05-19T18:18:24.612Z,64.10
2019-05-19T18:20:50.675Z,64.40
2019-05-19T18:23:16.784Z,65.00
2019-05-19T18:25:42.850Z,65.70
2019-05-19T18:28:08.910Z,66.20
2019-05-19T18:30:35.100Z,67.00
2019-05-19T18:33:01.159Z,67.50
2019-05-19T18:35:27.227Z,68.50
2019-05-19T18:37:53.303Z,69.00
2019-05-19T18:40:41.152Z,69.50
2019-05-19T18:43:07.208Z,70.70
2019-05-19T18:45:33.266Z,71.20
2019-05-19T18:47:59.361Z,71.80
2019-05-19T18:50:25.523Z,72.80
2019-05-19T18:52:51.573Z,73.80
2019-05-19T18:55:17.644Z,74.50
2019-05-19T18:57:43.715Z,75.30
2019-05-19T19:00:10.009Z,76.30
2019-05-19T19:02:36.351Z,77.30
2019-05-19T19:05:05.016Z,78.50
2019-05-19T19:07:48.131Z,79.50
2019-05-19T19:10:14.202Z,80.40
2019-05-19T19:12:40.251Z,81.00
2019-05-19T19:15:06.371Z,82.50
2019-05-19T19:17:32.448Z,83.00
2019-05-19T19:19:58.675Z,83.30
2019-05-19T19:22:24.862Z,84.80
2019-05-19T19:24:51.149Z,86.10
2019-05-19T19:27:17.299Z,86.60
2019-05-19T19:29:43.356Z,87.60
2019-05-19T19:32:09.583Z,87.90
2019-05-19T19:34:35.713Z,88.90
2019-05-19T19:37:01.794Z,89.20
2019-05-19T19:39:27.928Z,90.20
2019-05-19T19:41:54.140Z,90.30
2019-05-19T19:44:20.271Z,90.70
2019-05-19T19:46:46.452Z,91.10
2019-05-19T19:49:12.508Z,91.10
2019-05-19T19:51:38.587Z,91.40
2019-05-19T19:54:04.642Z,91.70
2019-05-19T19:56:30.690Z,91.90
2019-05-19T19:58:56.911Z,92.30
2019-05-19T20:01:23.000Z,92.20
2019-05-19T20:03:49.125Z,92.50
2019-05-19T20:06:15.184Z,92.80
2019-05-19T20:08:41.282Z,93.30
2019-05-19T20:11:07.355Z,93.60
2019-05-19T20:13:33.516Z,93.90
2019-05-19T20:15:59.710Z,94.40
2019-05-19T20:18:26.065Z,94.50
2019-05-19T20:20:52.348Z,94.80
2019-05-19T20:23:18.416Z,95.20
2019-05-19T20:25:44.571Z,95.20
2019-05-19T20:28:10.720Z,95.50
2019-05-19T20:30:37.025Z,95.90
2019-05-19T20:33:03.290Z,95.70
2019-05-19T20:35:30.469Z,96.00
2019-05-19T20:37:56.594Z,96.10
2019-05-19T20:40:22.771Z,96.10
2019-05-19T20:42:48.935Z,96.50
2019-05-19T20:45:15.076Z,96.60
2019-05-19T20:47:41.183Z,96.70
2019-05-19T20:50:07.615Z,96.60
2019-05-19T20:52:33.679Z,96.90
2019-05-19T20:54:59.741Z,97.30
2019-05-19T20:57:25.800Z,97.00
2019-05-19T20:59:51.975Z,97.70
2019-05-19T21:02:18.039Z,97.80
2019-05-19T21:04:44.094Z,98.10
2019-05-19T21:07:10.148Z,98.10
2019-05-19T21:09:36.233Z,98.40
2019-05-19T21:12:02.285Z,98.60
2019-05-19T21:14:28.335Z,98.80
2019-05-19T21:16:54.827Z,98.80
2019-05-19T21:19:21.997Z,98.60
2019-05-19T21:21:48.165Z,98.60
2019-05-19T21:24:14.608Z,99.00
2019-05-19T21:26:40.714Z,99.30
2019-05-19T21:29:06.772Z,99.30
2019-05-19T21:31:32.924Z,99.60
2019-05-19T21:33:58.983Z,99.80
2019-05-19T21:36:25.042Z,99.80
2019-05-19T21:38:51.189Z,99.90
2019-05-19T21:41:17.323Z,99.90
2019-05-19T21:43:43.383Z,99.90
2019-05-19T21:46:09.445Z,99.90
2019-05-19T21:48:35.499Z,99.90
2019-05-19T21:51:01.555Z,99.90
2019-05-19T21:53:27.606Z,99.90
2019-05-19T21:55:53.671Z,99.90
2019-05-19T21:58:19.732Z,99.90
2019-05-19T22:00:45.818Z,99.90
2019-05-19T22:03:11.977Z,99.90
2019-05-19T22:05:51.177Z,99.90
2019-05-19T22:08:07.923Z,99.90
2019-05-19T22:10:34.036Z,99.90
2019-05-19T22:13:00.107Z,99.90
2019-05-19T22:15:26.160Z,99.90
2019-05-19T22:17:52.274Z,99.90
2019-05-19T22:20:18.457Z,99.90
2019-05-19T22:22:44.608Z,99.90
2019-05-19T22:25:10.971Z,99.90
2019-05-19T22:27:37.027Z,99.90
2019-05-19T22:30:06.672Z,99.90
2019-05-19T22:32:32.728Z,99.90
2019-05-19T22:34:58.829Z,99.90
2019-05-19T22:37:25.021Z,99.90
2019-05-19T22:39:51.171Z,99.90
2019-05-19T22:42:17.235Z,99.90
2019-05-19T22:44:43.312Z,99.90
2019-05-19T22:47:09.363Z,99.90
2019-05-19T22:49:35.479Z,99.90
2019-05-19T22:52:01.544Z,99.90
2019-05-19T22:54:27.781Z,99.90
2019-05-19T22:56:53.829Z,99.90
2019-05-19T22:59:20.468Z,99.90
2019-05-19T23:01:51.803Z,99.90
2019-05-19T23:04:14.737Z,99.90
2019-05-19T23:06:40.832Z,99.90
2019-05-19T23:09:06.898Z,99.90
2019-05-19T23:11:33.255Z,99.90
2019-05-19T23:13:59.319Z,99.90
2019-05-19T23:16:25.379Z,99.90
2019-05-19T23:18:51.452Z,99.90
2019-05-19T23:21:17.501Z,99.90
2019-05-19T23:23:43.597Z,99.90
2019-05-19T23:26:09.661Z,99.90
2019-05-19T23:28:35.729Z,99.90
2019-05-19T23:31:01.788Z,99.90
2019-05-19T23:33:27.857Z,99.90
2019-05-19T23:35:53.902Z,99.90
2019-05-19T23:38:20.031Z,99.90
2019-05-19T23:40:46.096Z,99.90
2019-05-19T23:43:12.194Z,99.90
2019-05-19T23:45:38.338Z,99.90
2019-05-19T23:48:04.392Z,99.90
2019-05-19T23:50:30.452Z,99.90
2019-05-19T23:52:56.505Z,99.90
2019-05-19T23:55:22.594Z,99.90
2019-05-19T23:57:48.642Z,99.90
